sensor_id;sensor_type;location;lat;lon;timestamp;temperature;humidity
2603;DHT22;1311;47.966;7.958;2022-10-17T00:01:53;14.60;99.90
2603;DHT22;1311;47.966;7.958;2022-10-17T00:04:20;14.60;99.90
2603;DHT22;1311;47.966;7.958;2022-10-17T00:06:47;14.70;99.90
2603;DHT22;1311;47.966;7.958;2022-10-17T00:09:13;14.70;99.90
2603;DHT22;1311;47.966;7.958;2022-10-17T00:11:40;14.80;99.90
2603;DHT22;1311;47.966;7.958;2022-10-17T00:14:07;14.70;99.90
2603;DHT22;1311;47.966;7.958;2022-10-17T00:16:34;14.70;99.90
2603;DHT22;1311;47.966;7.958;2022-10-17T00:19:02;14.60;99.90
2603;DHT22;1311;47.966;7.958;2022-10-17T00:21:29;14.70;99.90
2603;DHT22;1311;47.966;7.958;2022-10-17T00:23:56;14.80;99.90
2603;DHT22;1311;47.966;7.958;2022-10-17T00:26:23;14.80;99.90
2603;DHT22;1311;47.966;7.958;2022-10-17T00:28:50;14.80;99.90
2603;DHT22;1311;47.966;7.958;2022-10-17T00:31:18;14.70;99.90
2603;DHT22;1311;47.966;7.958;2022-10-17T00:33:45;14.70;99.90
2603;DHT22;1311;47.966;7.958;2022-10-17T00:36:13;14.90;99.90
2603;DHT22;1311;47.966;7.958;2022-10-17T00:38:41;14.80;99.90
2603;DHT22;1311;47.966;7.958;2022-10-17T00:41:08;14.80;99.90
2603;DHT22;1311;47.966;7.958;2022-10-17T00:43:48;14.80;99.90
2603;DHT22;1311;47.966;7.958;2022-10-17T00:46:15;14.80;99.90
2603;DHT22;1311;47.966;7.958;2022-10-17T00:48:42;14.80;99.90
2603;DHT22;1311;47.966;7.958;2022-10-17T00:51:09;14.80;99.90
2603;DHT22;1311;47.966;7.958;2022-10-17T00:53:37;16.00;99.90
2603;DHT22;1311;47.966;7.958;2022-10-17T00:56:04;14.70;99.90
2603;DHT22;1311;47.966;7.958;2022-10-17T00:58:31;14.70;99.90
2603;DHT22;1311;47.966;7.958;2022-10-17T01:00:58;14.70;99.90
2603;DHT22;1311;47.966;7.958;2022-10-17T01:03:24;14.70;99.90
2603;DHT22;1311;47.966;7.958;2022-10-17T01:05:51;15.30;99.90
2603;DHT22;1311;47.966;7.958;2022-10-17T01:08:18;14.70;99.90
2603;DHT22;1311;47.966;7.958;2022-10-17T01:10:48;14.40;99.90
2603;DHT22;1311;47.966;7.958;2022-10-17T01:13:18;14.40;99.90
2603;DHT22;1311;47.966;7.958;2022-10-17T01:15:49;14.90;99.90
2603;DHT22;1311;47.966;7.958;2022-10-17T01:18:23;15.10;99.90
2603;DHT22;1311;47.966;7.958;2022-10-17T01:20:59;14.20;99.90
2603;DHT22;1311;47.966;7.958;2022-10-17T01:26:18;14.10;99.90
2603;DHT22;1311;47.966;7.958;2022-10-17T01:28:55;14.00;99.90
2603;DHT22;1311;47.966;7.958;2022-10-17T01:31:29;14.00;99.90
2603;DHT22;1311;47.966;7.958;2022-10-17T01:33:59;14.00;99.90
2603;DHT22;1311;47.966;7.958;2022-10-17T01:36:32;13.90;99.90
2603;DHT22;1311;47.966;7.958;2022-10-17T01:39:01;13.90;99.90
2603;DHT22;1311;47.966;7.958;2022-10-17T01:41:31;13.80;99.90
2603;DHT22;1311;47.966;7.958;2022-10-17T01:44:01;13.80;99.90
2603;DHT22;1311;47.966;7.958;2022-10-17T01:46:31;13.90;99.90
2603;DHT22;1311;47.966;7.958;2022-10-17T01:48:59;13.80;99.90
2603;DHT22;1311;47.966;7.958;2022-10-17T01:51:27;13.90;99.90
2603;DHT22;1311;47.966;7.958;2022-10-17T01:53:57;13.80;99.90
2603;DHT22;1311;47.966;7.958;2022-10-17T01:56:25;13.80;99.90
2603;DHT22;1311;47.966;7.958;2022-10-17T01:58:54;14.60;99.90
2603;DHT22;1311;47.966;7.958;2022-10-17T02:01:21;14.50;99.90
2603;DHT22;1311;47.966;7.958;2022-10-17T02:03:51;13.80;99.90
2603;DHT22;1311;47.966;7.958;2022-10-17T02:06:18;13.80;99.90
2603;DHT22;1311;47.966;7.958;2022-10-17T02:08:46;13.80;99.90
2603;DHT22;1311;47.966;7.958;2022-10-17T02:11:13;13.80;99.90
2603;DHT22;1311;47.966;7.958;2022-10-17T02:13:44;13.80;99.90
2603;DHT22;1311;47.966;7.958;2022-10-17T02:16:16;13.80;99.90
2603;DHT22;1311;47.966;7.958;2022-10-17T02:18:54;14.30;99.90
2603;DHT22;1311;47.966;7.958;2022-10-17T02:21:25;13.60;99.90
2603;DHT22;1311;47.966;7.958;2022-10-17T02:23:54;13.80;99.90
2603;DHT22;1311;47.966;7.958;2022-10-17T02:26:24;14.60;99.90
2603;DHT22;1311;47.966;7.958;2022-10-17T02:28:53;13.60;99.90
2603;DHT22;1311;47.966;7.958;2022-10-17T02:31:23;13.90;99.90
2603;DHT22;1311;47.966;7.958;2022-10-17T02:33:51;13.60;99.90
2603;DHT22;1311;47.966;7.958;2022-10-17T02:36:23;13.80;99.90
2603;DHT22;1311;47.966;7.958;2022-10-17T02:38:51;13.70;99.90
2603;DHT22;1311;47.966;7.958;2022-10-17T02:41:20;13.60;99.90
2603;DHT22;1311;47.966;7.958;2022-10-17T02:43:47;14.40;99.90
2603;DHT22;1311;47.966;7.958;2022-10-17T02:46:15;14.40;99.90
2603;DHT22;1311;47.966;7.958;2022-10-17T02:48:46;13.40;99.90
2603;DHT22;1311;47.966;7.958;2022-10-17T02:51:14;13.30;99.90
2603;DHT22;1311;47.966;7.958;2022-10-17T02:53:47;13.80;99.90
2603;DHT22;1311;47.966;7.958;2022-10-17T02:56:17;13.30;99.90
2603;DHT22;1311;47.966;7.958;2022-10-17T02:58:44;13.30;99.90
2603;DHT22;1311;47.966;7.958;2022-10-17T03:01:13;13.30;99.90
2603;DHT22;1311;47.966;7.958;2022-10-17T03:03:41;13.20;99.90
2603;DHT22;1311;47.966;7.958;2022-10-17T03:06:07;13.20;99.90
2603;DHT22;1311;47.966;7.958;2022-10-17T03:08:34;13.10;99.90
2603;DHT22;1311;47.966;7.958;2022-10-17T03:11:02;13.40;99.90
2603;DHT22;1311;47.966;7.958;2022-10-17T03:13:29;13.20;99.90
2603;DHT22;1311;47.966;7.958;2022-10-17T03:15:56;13.20;99.90
2603;DHT22;1311;47.966;7.958;2022-10-17T03:18:22;13.20;99.90
2603;DHT22;1311;47.966;7.958;2022-10-17T03:20:49;13.20;99.90
2603;DHT22;1311;47.966;7.958;2022-10-17T03:23:16;13.20;99.90
2603;DHT22;1311;47.966;7.958;2022-10-17T03:25:42;13.20;99.90
2603;DHT22;1311;47.966;7.958;2022-10-17T03:28:11;13.20;99.90
2603;DHT22;1311;47.966;7.958;2022-10-17T03:30:37;13.20;99.90
2603;DHT22;1311;47.966;7.958;2022-10-17T03:33:04;13.00;99.90
2603;DHT22;1311;47.966;7.958;2022-10-17T03:35:31;14.00;99.90
2603;DHT22;1311;47.966;7.958;2022-10-17T03:37:57;13.00;99.90
2603;DHT22;1311;47.966;7.958;2022-10-17T03:40:24;12.90;99.90
2603;DHT22;1311;47.966;7.958;2022-10-17T03:42:51;12.80;99.90
2603;DHT22;1311;47.966;7.958;2022-10-17T03:45:18;12.80;99.90
2603;DHT22;1311;47.966;7.958;2022-10-17T03:47:45;12.80;99.90
2603;DHT22;1311;47.966;7.958;2022-10-17T03:50:12;12.70;99.90
2603;DHT22;1311;47.966;7.958;2022-10-17T03:52:39;12.70;99.90
2603;DHT22;1311;47.966;7.958;2022-10-17T03:55:06;13.90;99.90
2603;DHT22;1311;47.966;7.958;2022-10-17T03:57:33;12.60;99.90
2603;DHT22;1311;47.966;7.958;2022-10-17T03:59:59;12.60;99.90
2603;DHT22;1311;47.966;7.958;2022-10-17T04:02:27;12.60;99.90
2603;DHT22;1311;47.966;7.958;2022-10-17T04:04:54;12.50;99.90
2603;DHT22;1311;47.966;7.958;2022-10-17T04:07:21;12.70;99.90
2603;DHT22;1311;47.966;7.958;2022-10-17T04:09:50;12.60;99.90
2603;DHT22;1311;47.966;7.958;2022-10-17T04:12:17;13.60;99.90
2603;DHT22;1311;47.966;7.958;2022-10-17T04:14:44;12.70;99.90
2603;DHT22;1311;47.966;7.958;2022-10-17T04:17:10;12.50;99.90
2603;DHT22;1311;47.966;7.958;2022-10-17T04:19:38;12.50;99.90
2603;DHT22;1311;47.966;7.958;2022-10-17T04:22:05;12.70;99.90
2603;DHT22;1311;47.966;7.958;2022-10-17T04:24:32;12.70;99.90
2603;DHT22;1311;47.966;7.958;2022-10-17T04:26:59;12.70;99.90
2603;DHT22;1311;47.966;7.958;2022-10-17T04:29:26;12.60;99.90
2603;DHT22;1311;47.966;7.958;2022-10-17T04:31:52;10.10;99.90
2603;DHT22;1311;47.966;7.958;2022-10-17T04:34:20;12.60;99.90
2603;DHT22;1311;47.966;7.958;2022-10-17T04:36:48;12.60;99.90
2603;DHT22;1311;47.966;7.958;2022-10-17T04:39:16;12.60;99.90
2603;DHT22;1311;47.966;7.958;2022-10-17T04:41:42;12.50;99.90
2603;DHT22;1311;47.966;7.958;2022-10-17T04:44:09;12.40;99.90
2603;DHT22;1311;47.966;7.958;2022-10-17T04:46:36;12.50;99.90
2603;DHT22;1311;47.966;7.958;2022-10-17T04:49:02;14.40;99.90
2603;DHT22;1311;47.966;7.958;2022-10-17T04:51:29;12.40;99.90
2603;DHT22;1311;47.966;7.958;2022-10-17T04:53:57;12.30;99.90
2603;DHT22;1311;47.966;7.958;2022-10-17T04:56:24;12.40;99.90
2603;DHT22;1311;47.966;7.958;2022-10-17T04:58:50;12.30;99.90
2603;DHT22;1311;47.966;7.958;2022-10-17T05:01:17;12.30;99.90
2603;DHT22;1311;47.966;7.958;2022-10-17T05:03:45;12.30;99.90
2603;DHT22;1311;47.966;7.958;2022-10-17T05:06:12;12.30;99.90
2603;DHT22;1311;47.966;7.958;2022-10-17T05:08:39;12.30;99.90
2603;DHT22;1311;47.966;7.958;2022-10-17T05:11:14;13.20;99.90
2603;DHT22;1311;47.966;7.958;2022-10-17T05:13:40;12.30;99.90
2603;DHT22;1311;47.966;7.958;2022-10-17T05:16:07;12.30;99.90
2603;DHT22;1311;47.966;7.958;2022-10-17T05:18:34;12.20;99.90
2603;DHT22;1311;47.966;7.958;2022-10-17T05:21:02;12.20;99.90
2603;DHT22;1311;47.966;7.958;2022-10-17T05:23:28;12.80;99.90
2603;DHT22;1311;47.966;7.958;2022-10-17T05:25:55;12.30;99.90
2603;DHT22;1311;47.966;7.958;2022-10-17T05:28:23;12.20;99.90
2603;DHT22;1311;47.966;7.958;2022-10-17T05:30:49;12.30;99.90
2603;DHT22;1311;47.966;7.958;2022-10-17T05:33:16;12.20;99.90
2603;DHT22;1311;47.966;7.958;2022-10-17T05:35:43;12.40;99.90
2603;DHT22;1311;47.966;7.958;2022-10-17T05:38:09;12.30;99.90
2603;DHT22;1311;47.966;7.958;2022-10-17T05:40:36;12.30;99.90
2603;DHT22;1311;47.966;7.958;2022-10-17T05:43:03;12.30;99.90
2603;DHT22;1311;47.966;7.958;2022-10-17T05:45:31;12.20;99.90
2603;DHT22;1311;47.966;7.958;2022-10-17T05:47:58;12.20;99.90
2603;DHT22;1311;47.966;7.958;2022-10-17T05:50:25;12.20;99.90
2603;DHT22;1311;47.966;7.958;2022-10-17T05:52:52;12.20;99.90
2603;DHT22;1311;47.966;7.958;2022-10-17T05:55:19;12.10;99.90
2603;DHT22;1311;47.966;7.958;2022-10-17T05:57:45;12.00;99.90
2603;DHT22;1311;47.966;7.958;2022-10-17T06:00:12;12.10;99.90
2603;DHT22;1311;47.966;7.958;2022-10-17T06:02:40;12.10;99.90
2603;DHT22;1311;47.966;7.958;2022-10-17T06:05:07;12.20;99.90
2603;DHT22;1311;47.966;7.958;2022-10-17T06:07:34;12.10;99.90
2603;DHT22;1311;47.966;7.958;2022-10-17T06:10:01;12.20;99.90
2603;DHT22;1311;47.966;7.958;2022-10-17T06:12:29;13.00;99.90
2603;DHT22;1311;47.966;7.958;2022-10-17T06:14:56;12.20;99.90
2603;DHT22;1311;47.966;7.958;2022-10-17T06:17:23;12.50;99.90
2603;DHT22;1311;47.966;7.958;2022-10-17T06:19:51;12.20;99.90
2603;DHT22;1311;47.966;7.958;2022-10-17T06:22:17;12.30;99.90
2603;DHT22;1311;47.966;7.958;2022-10-17T06:24:44;12.30;99.90
2603;DHT22;1311;47.966;7.958;2022-10-17T06:27:11;12.60;99.90
2603;DHT22;1311;47.966;7.958;2022-10-17T06:29:37;12.40;99.90
2603;DHT22;1311;47.966;7.958;2022-10-17T06:32:04;12.60;99.90
2603;DHT22;1311;47.966;7.958;2022-10-17T06:34:31;12.50;99.90
2603;DHT22;1311;47.966;7.958;2022-10-17T06:36:59;13.20;99.90
2603;DHT22;1311;47.966;7.958;2022-10-17T06:39:26;12.60;99.90
2603;DHT22;1311;47.966;7.958;2022-10-17T06:41:58;13.60;99.90
2603;DHT22;1311;47.966;7.958;2022-10-17T06:44:24;12.70;99.90
2603;DHT22;1311;47.966;7.958;2022-10-17T06:46:55;12.70;99.90
2603;DHT22;1311;47.966;7.958;2022-10-17T06:49:21;12.80;99.90
2603;DHT22;1311;47.966;7.958;2022-10-17T06:51:48;12.80;99.90
2603;DHT22;1311;47.966;7.958;2022-10-17T06:54:16;12.90;99.90
2603;DHT22;1311;47.966;7.958;2022-10-17T06:56:43;13.10;99.90
2603;DHT22;1311;47.966;7.958;2022-10-17T06:59:09;13.20;99.90
2603;DHT22;1311;47.966;7.958;2022-10-17T07:01:36;13.30;99.90
2603;DHT22;1311;47.966;7.958;2022-10-17T07:04:02;13.30;99.90
2603;DHT22;1311;47.966;7.958;2022-10-17T07:06:29;13.40;99.90
2603;DHT22;1311;47.966;7.958;2022-10-17T07:08:56;13.60;99.90
2603;DHT22;1311;47.966;7.958;2022-10-17T07:11:25;13.60;99.90
2603;DHT22;1311;47.966;7.958;2022-10-17T07:13:51;13.70;99.90
2603;DHT22;1311;47.966;7.958;2022-10-17T07:16:18;15.40;99.90
2603;DHT22;1311;47.966;7.958;2022-10-17T07:18:47;14.00;99.90
2603;DHT22;1311;47.966;7.958;2022-10-17T07:21:14;14.00;99.90
2603;DHT22;1311;47.966;7.958;2022-10-17T07:23:40;14.20;99.90
2603;DHT22;1311;47.966;7.958;2022-10-17T07:26:08;14.40;99.90
2603;DHT22;1311;47.966;7.958;2022-10-17T07:28:37;14.40;99.90
2603;DHT22;1311;47.966;7.958;2022-10-17T07:31:05;14.60;99.90
2603;DHT22;1311;47.966;7.958;2022-10-17T07:33:32;14.70;99.90
2603;DHT22;1311;47.966;7.958;2022-10-17T07:35:59;14.90;99.90
2603;DHT22;1311;47.966;7.958;2022-10-17T07:38:26;15.10;99.90
2603;DHT22;1311;47.966;7.958;2022-10-17T07:40:53;15.20;99.90
2603;DHT22;1311;47.966;7.958;2022-10-17T07:43:20;15.40;99.90
2603;DHT22;1311;47.966;7.958;2022-10-17T07:45:47;15.50;99.90
2603;DHT22;1311;47.966;7.958;2022-10-17T07:48:14;15.60;99.90
2603;DHT22;1311;47.966;7.958;2022-10-17T07:50:41;15.70;99.90
2603;DHT22;1311;47.966;7.958;2022-10-17T07:53:07;15.90;99.90
2603;DHT22;1311;47.966;7.958;2022-10-17T07:55:35;16.20;99.90
2603;DHT22;1311;47.966;7.958;2022-10-17T07:58:02;16.90;99.90
2603;DHT22;1311;47.966;7.958;2022-10-17T08:00:28;16.50;99.90
2603;DHT22;1311;47.966;7.958;2022-10-17T08:02:56;16.60;99.90
2603;DHT22;1311;47.966;7.958;2022-10-17T08:05:23;16.80;99.90
2603;DHT22;1311;47.966;7.958;2022-10-17T08:07:50;16.90;99.90
2603;DHT22;1311;47.966;7.958;2022-10-17T08:10:16;17.90;99.90
2603;DHT22;1311;47.966;7.958;2022-10-17T08:12:43;17.00;99.90
2603;DHT22;1311;47.966;7.958;2022-10-17T08:15:10;17.10;99.90
2603;DHT22;1311;47.966;7.958;2022-10-17T08:17:37;17.30;99.90
2603;DHT22;1311;47.966;7.958;2022-10-17T08:20:05;17.30;99.90
2603;DHT22;1311;47.966;7.958;2022-10-17T08:22:33;17.40;99.90
2603;DHT22;1311;47.966;7.958;2022-10-17T08:25:00;18.20;99.90
2603;DHT22;1311;47.966;7.958;2022-10-17T08:27:27;18.30;99.90
2603;DHT22;1311;47.966;7.958;2022-10-17T08:29:54;17.60;99.90
2603;DHT22;1311;47.966;7.958;2022-10-17T08:32:21;18.30;99.90
2603;DHT22;1311;47.966;7.958;2022-10-17T08:34:49;17.60;99.90
2603;DHT22;1311;47.966;7.958;2022-10-17T08:37:17;18.30;99.90
2603;DHT22;1311;47.966;7.958;2022-10-17T08:39:43;17.90;99.90
2603;DHT22;1311;47.966;7.958;2022-10-17T08:42:18;18.00;99.90
2603;DHT22;1311;47.966;7.958;2022-10-17T08:44:52;18.10;99.90
2603;DHT22;1311;47.966;7.958;2022-10-17T08:47:28;18.20;99.90
2603;DHT22;1311;47.966;7.958;2022-10-17T08:49:59;18.90;99.90
2603;DHT22;1311;47.966;7.958;2022-10-17T08:52:34;18.50;99.90
2603;DHT22;1311;47.966;7.958;2022-10-17T08:55:03;18.60;99.90
2603;DHT22;1311;47.966;7.958;2022-10-17T08:57:30;18.80;99.90
2603;DHT22;1311;47.966;7.958;2022-10-17T08:59:57;18.90;99.90
2603;DHT22;1311;47.966;7.958;2022-10-17T09:05:13;19.00;99.90
2603;DHT22;1311;47.966;7.958;2022-10-17T09:07:48;19.30;99.90
2603;DHT22;1311;47.966;7.958;2022-10-17T09:10:20;19.40;99.90
2603;DHT22;1311;47.966;7.958;2022-10-17T09:12:50;19.40;99.90
2603;DHT22;1311;47.966;7.958;2022-10-17T09:15:26;19.60;99.90
2603;DHT22;1311;47.966;7.958;2022-10-17T09:17:55;19.60;99.90
2603;DHT22;1311;47.966;7.958;2022-10-17T09:20:22;19.80;99.90
2603;DHT22;1311;47.966;7.958;2022-10-17T09:22:54;19.80;99.90
2603;DHT22;1311;47.966;7.958;2022-10-17T09:25:21;19.90;99.90
2603;DHT22;1311;47.966;7.958;2022-10-17T09:27:49;20.00;99.90
2603;DHT22;1311;47.966;7.958;2022-10-17T09:30:26;20.00;99.90
2603;DHT22;1311;47.966;7.958;2022-10-17T09:32:54;20.10;99.90
2603;DHT22;1311;47.966;7.958;2022-10-17T09:35:20;20.10;99.90
2603;DHT22;1311;47.966;7.958;2022-10-17T09:37:48;20.20;99.90
2603;DHT22;1311;47.966;7.958;2022-10-17T09:40:17;20.30;99.90
2603;DHT22;1311;47.966;7.958;2022-10-17T09:42:45;20.50;99.90
2603;DHT22;1311;47.966;7.958;2022-10-17T09:45:14;20.60;99.90
2603;DHT22;1311;47.966;7.958;2022-10-17T09:47:45;20.70;99.90
2603;DHT22;1311;47.966;7.958;2022-10-17T09:50:15;20.80;99.90
2603;DHT22;1311;47.966;7.958;2022-10-17T09:52:42;20.90;99.90
2603;DHT22;1311;47.966;7.958;2022-10-17T09:55:14;21.00;99.90
2603;DHT22;1311;47.966;7.958;2022-10-17T09:57:54;21.10;99.90
2603;DHT22;1311;47.966;7.958;2022-10-17T10:00:21;21.20;99.90
2603;DHT22;1311;47.966;7.958;2022-10-17T10:02:48;21.40;99.90
2603;DHT22;1311;47.966;7.958;2022-10-17T10:05:15;21.50;99.90
2603;DHT22;1311;47.966;7.958;2022-10-17T10:07:44;21.60;99.90
2603;DHT22;1311;47.966;7.958;2022-10-17T10:10:22;21.80;99.90
2603;DHT22;1311;47.966;7.958;2022-10-17T10:13:04;21.90;99.90
2603;DHT22;1311;47.966;7.958;2022-10-17T10:15:32;22.10;99.90
2603;DHT22;1311;47.966;7.958;2022-10-17T10:17:59;22.20;99.90
2603;DHT22;1311;47.966;7.958;2022-10-17T10:20:27;22.30;99.90
2603;DHT22;1311;47.966;7.958;2022-10-17T10:25:50;22.50;99.90
2603;DHT22;1311;47.966;7.958;2022-10-17T10:28:19;22.50;99.90
2603;DHT22;1311;47.966;7.958;2022-10-17T10:30:48;23.50;99.90
2603;DHT22;1311;47.966;7.958;2022-10-17T10:33:17;22.70;99.90
2603;DHT22;1311;47.966;7.958;2022-10-17T10:35:45;22.80;99.90
2603;DHT22;1311;47.966;7.958;2022-10-17T10:38:17;22.90;99.90
2603;DHT22;1311;47.966;7.958;2022-10-17T10:40:47;22.90;99.90
2603;DHT22;1311;47.966;7.958;2022-10-17T10:43:20;23.00;99.90
2603;DHT22;1311;47.966;7.958;2022-10-17T10:45:48;23.00;99.90
2603;DHT22;1311;47.966;7.958;2022-10-17T10:48:18;23.10;99.90
2603;DHT22;1311;47.966;7.958;2022-10-17T10:50:46;23.00;99.90
2603;DHT22;1311;47.966;7.958;2022-10-17T10:53:20;23.10;99.90
2603;DHT22;1311;47.966;7.958;2022-10-17T10:55:50;23.10;99.90
2603;DHT22;1311;47.966;7.958;2022-10-17T10:58:25;23.20;99.90
2603;DHT22;1311;47.966;7.958;2022-10-17T11:00:52;23.20;99.90
2603;DHT22;1311;47.966;7.958;2022-10-17T11:03:22;23.20;99.90
2603;DHT22;1311;47.966;7.958;2022-10-17T11:05:52;23.20;99.90
2603;DHT22;1311;47.966;7.958;2022-10-17T11:08:22;23.20;99.90
2603;DHT22;1311;47.966;7.958;2022-10-17T11:10:56;23.20;99.90
2603;DHT22;1311;47.966;7.958;2022-10-17T11:13:26;23.20;99.90
2603;DHT22;1311;47.966;7.958;2022-10-17T11:15:56;23.40;99.90
2603;DHT22;1311;47.966;7.958;2022-10-17T11:18:25;23.70;99.90
2603;DHT22;1311;47.966;7.958;2022-10-17T11:20:54;23.20;99.90
2603;DHT22;1311;47.966;7.958;2022-10-17T11:23:23;23.20;99.90
2603;DHT22;1311;47.966;7.958;2022-10-17T11:25:51;23.30;99.90
2603;DHT22;1311;47.966;7.958;2022-10-17T11:28:20;23.30;99.90
2603;DHT22;1311;47.966;7.958;2022-10-17T11:30:50;23.30;99.90
2603;DHT22;1311;47.966;7.958;2022-10-17T11:33:21;23.40;99.90
2603;DHT22;1311;47.966;7.958;2022-10-17T11:35:50;23.60;99.90
2603;DHT22;1311;47.966;7.958;2022-10-17T11:38:19;23.50;99.90
2603;DHT22;1311;47.966;7.958;2022-10-17T11:40:48;23.50;99.90
2603;DHT22;1311;47.966;7.958;2022-10-17T11:43:16;23.50;99.90
2603;DHT22;1311;47.966;7.958;2022-10-17T11:45:46;23.50;99.90
2603;DHT22;1311;47.966;7.958;2022-10-17T11:48:15;23.70;99.90
2603;DHT22;1311;47.966;7.958;2022-10-17T11:50:44;23.60;99.90
2603;DHT22;1311;47.966;7.958;2022-10-17T11:53:12;23.60;99.90
2603;DHT22;1311;47.966;7.958;2022-10-17T11:55:39;23.50;99.90
2603;DHT22;1311;47.966;7.958;2022-10-17T11:58:22;23.60;99.90
2603;DHT22;1311;47.966;7.958;2022-10-17T12:00:52;23.60;99.90
2603;DHT22;1311;47.966;7.958;2022-10-17T12:03:25;23.70;99.90
2603;DHT22;1311;47.966;7.958;2022-10-17T12:05:54;23.70;99.90
2603;DHT22;1311;47.966;7.958;2022-10-17T12:08:24;23.80;99.90
2603;DHT22;1311;47.966;7.958;2022-10-17T12:10:53;23.80;99.90
2603;DHT22;1311;47.966;7.958;2022-10-17T12:18:45;24.00;99.90
2603;DHT22;1311;47.966;7.958;2022-10-17T12:21:12;24.00;99.90
2603;DHT22;1311;47.966;7.958;2022-10-17T12:23:38;24.00;99.90
2603;DHT22;1311;47.966;7.958;2022-10-17T12:26:06;24.00;99.90
2603;DHT22;1311;47.966;7.958;2022-10-17T12:28:39;24.00;99.90
2603;DHT22;1311;47.966;7.958;2022-10-17T12:31:08;24.00;99.90
2603;DHT22;1311;47.966;7.958;2022-10-17T12:33:37;24.10;99.90
2603;DHT22;1311;47.966;7.958;2022-10-17T12:44:35;24.30;99.90
2603;DHT22;1311;47.966;7.958;2022-10-17T12:49:45;24.40;99.90
2603;DHT22;1311;47.966;7.958;2022-10-17T12:52:16;24.40;99.90
2603;DHT22;1311;47.966;7.958;2022-10-17T12:54:44;24.40;99.90
2603;DHT22;1311;47.966;7.958;2022-10-17T12:57:12;24.40;99.90
2603;DHT22;1311;47.966;7.958;2022-10-17T12:59:43;24.40;99.90
2603;DHT22;1311;47.966;7.958;2022-10-17T13:02:13;24.50;99.90
2603;DHT22;1311;47.966;7.958;2022-10-17T13:04:42;24.40;99.90
2603;DHT22;1311;47.966;7.958;2022-10-17T13:07:11;24.40;99.90
2603;DHT22;1311;47.966;7.958;2022-10-17T13:09:42;24.40;99.90
2603;DHT22;1311;47.966;7.958;2022-10-17T13:12:09;24.50;99.90
2603;DHT22;1311;47.966;7.958;2022-10-17T13:14:38;24.40;99.90
2603;DHT22;1311;47.966;7.958;2022-10-17T13:17:18;24.40;99.90
2603;DHT22;1311;47.966;7.958;2022-10-17T13:19:46;24.50;99.90
2603;DHT22;1311;47.966;7.958;2022-10-17T13:22:14;24.50;99.90
2603;DHT22;1311;47.966;7.958;2022-10-17T13:24:42;24.50;99.90
2603;DHT22;1311;47.966;7.958;2022-10-17T13:27:21;24.50;99.90
2603;DHT22;1311;47.966;7.958;2022-10-17T13:29:48;24.50;99.90
2603;DHT22;1311;47.966;7.958;2022-10-17T13:32:16;24.50;99.90
2603;DHT22;1311;47.966;7.958;2022-10-17T13:34:42;24.60;99.90
2603;DHT22;1311;47.966;7.958;2022-10-17T13:37:10;24.50;99.90
2603;DHT22;1311;47.966;7.958;2022-10-17T13:39:39;24.40;99.90
2603;DHT22;1311;47.966;7.958;2022-10-17T13:42:06;24.40;99.90
2603;DHT22;1311;47.966;7.958;2022-10-17T13:44:42;24.40;99.90
2603;DHT22;1311;47.966;7.958;2022-10-17T13:47:20;24.40;99.90
2603;DHT22;1311;47.966;7.958;2022-10-17T13:49:47;24.40;99.90
2603;DHT22;1311;47.966;7.958;2022-10-17T13:52:14;24.30;99.90
2603;DHT22;1311;47.966;7.958;2022-10-17T13:54:43;24.40;99.90
2603;DHT22;1311;47.966;7.958;2022-10-17T13:57:16;24.40;99.90
2603;DHT22;1311;47.966;7.958;2022-10-17T13:59:44;24.30;99.90
2603;DHT22;1311;47.966;7.958;2022-10-17T14:02:14;24.40;99.90
2603;DHT22;1311;47.966;7.958;2022-10-17T14:04:43;24.40;99.90
2603;DHT22;1311;47.966;7.958;2022-10-17T14:07:16;24.30;99.90
2603;DHT22;1311;47.966;7.958;2022-10-17T14:09:45;24.30;99.90
2603;DHT22;1311;47.966;7.958;2022-10-17T14:12:12;24.30;99.90
2603;DHT22;1311;47.966;7.958;2022-10-17T14:14:39;24.30;99.90
2603;DHT22;1311;47.966;7.958;2022-10-17T14:17:11;24.30;99.90
2603;DHT22;1311;47.966;7.958;2022-10-17T14:19:39;24.30;99.90
2603;DHT22;1311;47.966;7.958;2022-10-17T14:22:17;24.30;99.90
2603;DHT22;1311;47.966;7.958;2022-10-17T14:24:44;24.30;99.90
2603;DHT22;1311;47.966;7.958;2022-10-17T14:27:24;24.20;99.90
2603;DHT22;1311;47.966;7.958;2022-10-17T14:29:52;24.20;99.90
2603;DHT22;1311;47.966;7.958;2022-10-17T14:32:19;24.10;99.90
2603;DHT22;1311;47.966;7.958;2022-10-17T14:34:50;24.00;99.90
2603;DHT22;1311;47.966;7.958;2022-10-17T14:37:22;24.00;99.90
2603;DHT22;1311;47.966;7.958;2022-10-17T14:39:52;24.00;99.90
2603;DHT22;1311;47.966;7.958;2022-10-17T14:42:20;23.90;99.90
2603;DHT22;1311;47.966;7.958;2022-10-17T14:44:48;23.80;99.90
2603;DHT22;1311;47.966;7.958;2022-10-17T14:47:16;23.80;99.90
2603;DHT22;1311;47.966;7.958;2022-10-17T14:49:47;23.80;99.90
2603;DHT22;1311;47.966;7.958;2022-10-17T14:52:24;23.80;99.90
2603;DHT22;1311;47.966;7.958;2022-10-17T14:54:51;23.70;99.90
2603;DHT22;1311;47.966;7.958;2022-10-17T14:57:21;23.70;99.90
2603;DHT22;1311;47.966;7.958;2022-10-17T14:59:48;23.60;99.90
2603;DHT22;1311;47.966;7.958;2022-10-17T15:02:15;23.60;99.90
2603;DHT22;1311;47.966;7.958;2022-10-17T15:04:41;23.50;99.90
2603;DHT22;1311;47.966;7.958;2022-10-17T15:07:09;23.50;99.90
2603;DHT22;1311;47.966;7.958;2022-10-17T15:09:39;23.40;99.90
2603;DHT22;1311;47.966;7.958;2022-10-17T15:12:11;23.40;99.90
2603;DHT22;1311;47.966;7.958;2022-10-17T15:14:39;23.30;99.90
2603;DHT22;1311;47.966;7.958;2022-10-17T15:17:08;23.20;99.90
2603;DHT22;1311;47.966;7.958;2022-10-17T15:19:35;23.10;99.90
2603;DHT22;1311;47.966;7.958;2022-10-17T15:22:02;23.00;99.90
2603;DHT22;1311;47.966;7.958;2022-10-17T15:24:28;23.00;99.90
2603;DHT22;1311;47.966;7.958;2022-10-17T15:26:56;22.90;99.90
2603;DHT22;1311;47.966;7.958;2022-10-17T15:29:23;22.80;99.90
2603;DHT22;1311;47.966;7.958;2022-10-17T15:31:50;22.70;99.90
2603;DHT22;1311;47.966;7.958;2022-10-17T15:34:16;22.70;99.90
2603;DHT22;1311;47.966;7.958;2022-10-17T15:36:47;22.60;99.90
2603;DHT22;1311;47.966;7.958;2022-10-17T15:39:14;22.80;99.90
2603;DHT22;1311;47.966;7.958;2022-10-17T15:41:44;22.50;99.90
2603;DHT22;1311;47.966;7.958;2022-10-17T15:44:13;22.30;99.90
2603;DHT22;1311;47.966;7.958;2022-10-17T15:46:40;22.20;99.90
2603;DHT22;1311;47.966;7.958;2022-10-17T15:49:09;22.10;99.90
2603;DHT22;1311;47.966;7.958;2022-10-17T15:51:36;22.00;99.90
2603;DHT22;1311;47.966;7.958;2022-10-17T15:54:03;21.90;99.90
2603;DHT22;1311;47.966;7.958;2022-10-17T15:56:32;21.80;99.90
2603;DHT22;1311;47.966;7.958;2022-10-17T15:59:00;21.70;99.90
2603;DHT22;1311;47.966;7.958;2022-10-17T16:01:29;21.50;99.90
2603;DHT22;1311;47.966;7.958;2022-10-17T16:03:56;21.40;99.90
2603;DHT22;1311;47.966;7.958;2022-10-17T16:06:24;21.40;99.90
2603;DHT22;1311;47.966;7.958;2022-10-17T16:08:51;21.30;99.90
2603;DHT22;1311;47.966;7.958;2022-10-17T16:11:18;21.10;99.90
2603;DHT22;1311;47.966;7.958;2022-10-17T16:13:48;21.00;99.90
2603;DHT22;1311;47.966;7.958;2022-10-17T16:16:15;20.80;99.90
2603;DHT22;1311;47.966;7.958;2022-10-17T16:18:43;20.70;99.90
2603;DHT22;1311;47.966;7.958;2022-10-17T16:21:10;20.50;99.90
2603;DHT22;1311;47.966;7.958;2022-10-17T16:23:38;20.40;99.90
2603;DHT22;1311;47.966;7.958;2022-10-17T16:26:05;20.30;99.90
2603;DHT22;1311;47.966;7.958;2022-10-17T16:28:32;20.10;99.90
2603;DHT22;1311;47.966;7.958;2022-10-17T16:30:59;19.90;99.90
2603;DHT22;1311;47.966;7.958;2022-10-17T16:33:25;19.80;99.90
2603;DHT22;1311;47.966;7.958;2022-10-17T16:35:53;19.60;99.90